Terminal Aerodrome Forecast
Issued by NWS

Home | Current Version | Previous Version | Text Only | Print | Product List | Glossary On
Versions: 1 2 3 4 5 6 7 8 9 10 11 12 13 14 15 16 17 18 19
000
FTUS46 KMTR 101100
TAFOAK
TAF
KOAK 101123Z 1012/1118 29005KT P6SM OVC011
     FM101800 27010KT P6SM SCT015
     FM102300 28015KT P6SM FEW015
     FM110400 28010KT P6SM SCT015
     FM110600 28007KT P6SM OVC012=

USA.gov is the U.S. government's official web portal to all federal, state and local government web resources and services.